Time;durP1;ratioP1;P1;durP2;ratioP2;P2;SDS_P1;SDS_P2;PMS_P1;PMS_P2;Temp;Humidity;BMP_temperature;BMP_pressure;BME280_temperature;BME280_humidity;BME280_pressure;Samples;Min_cycle;Max_cycle;Signal;HPM_P1;HPM_P2
2024/04/19 00:00:43;;;;;;;8.53;8.13;;;;;;;;;;5489878;26;20291;-80
2024/04/19 00:03:09;;;;;;;9.95;8.82;;;;;;;;;;5498284;26;20685;-79
2024/04/19 00:05:39;;;;;;;9.47;8.87;;;;;;;;;;5490378;26;20240;-79
2024/04/19 00:08:05;;;;;;;11.73;9.00;;;;;;;;;;5490202;26;20457;-79
2024/04/19 00:10:34;;;;;;;9.70;8.82;;;;;;;;;;5489832;26;20240;-80
2024/04/19 00:13:00;;;;;;;9.48;8.82;;;;;;;;;;5478556;26;20236;-79
2024/04/19 00:15:26;;;;;;;10.77;9.80;;;;;;;;;;5490550;26;20232;-79
2024/04/19 00:17:52;;;;;;;12.63;9.43;;;;;;;;;;5454261;26;20236;-79
2024/04/19 00:20:18;;;;;;;10.10;9.45;;;;;;;;;;5477225;26;20445;-80
2024/04/19 00:22:44;;;;;;;10.48;9.57;;;;;;;;;;5488087;26;20221;-80
2024/04/19 00:25:10;;;;;;;11.23;9.43;;;;;;;;;;5457377;26;20271;-80
2024/04/19 00:27:36;;;;;;;9.37;8.77;;;;;;;;;;5491703;26;20289;-80
2024/04/19 00:30:02;;;;;;;10.27;9.57;;;;;;;;;;5491295;26;20604;-79
2024/04/19 00:32:28;;;;;;;10.13;9.32;;;;;;;;;;5485311;26;20513;-79
2024/04/19 00:34:54;;;;;;;11.10;10.10;;;;;;;;;;5486807;26;20295;-79
2024/04/19 00:37:20;;;;;;;10.43;9.73;;;;;;;;;;5487556;26;20590;-80
2024/04/19 00:39:46;;;;;;;10.50;9.80;;;;;;;;;;5481227;26;20465;-79
2024/04/19 00:42:12;;;;;;;10.63;9.65;;;;;;;;;;5491118;26;20575;-80
2024/04/19 00:44:38;;;;;;;10.70;10.00;;;;;;;;;;5479674;26;20757;-79
2024/04/19 00:47:05;;;;;;;10.77;9.80;;;;;;;;;;5490657;26;20579;-79
2024/04/19 00:49:32;;;;;;;10.68;10.07;;;;;;;;;;5490656;26;20279;-80
2024/04/19 00:51:58;;;;;;;12.07;11.23;;;;;;;;;;5490681;26;20341;-80
2024/04/19 00:54:25;;;;;;;11.35;10.63;;;;;;;;;;5495844;26;20561;-80
2024/04/19 00:56:51;;;;;;;16.13;15.00;;;;;;;;;;5491134;26;20240;-79
2024/04/19 00:59:17;;;;;;;16.50;15.15;;;;;;;;;;5490966;26;20295;-80
2024/04/19 01:01:43;;;;;;;16.92;15.30;;;;;;;;;;5467272;26;20274;-80
2024/04/19 01:04:10;;;;;;;15.90;14.80;;;;;;;;;;5482474;26;20228;-79
2024/04/19 01:06:36;;;;;;;15.98;14.70;;;;;;;;;;5489992;26;20257;-79
2024/04/19 01:09:03;;;;;;;16.97;15.60;;;;;;;;;;5490848;26;20232;-80
2024/04/19 01:11:29;;;;;;;17.70;16.25;;;;;;;;;;5489224;26;20758;-80
2024/04/19 01:13:55;;;;;;;17.15;15.60;;;;;;;;;;5491079;26;20307;-81
2024/04/19 01:16:21;;;;;;;17.35;16.25;;;;;;;;;;5490512;26;20327;-81
2024/04/19 01:18:49;;;;;;;19.33;17.73;;;;;;;;;;5451760;26;20249;-82
2024/04/19 01:21:15;;;;;;;18.27;17.00;;;;;;;;;;5490432;26;20552;-82
2024/04/19 01:23:41;;;;;;;19.67;18.15;;;;;;;;;;5485351;26;20232;-82
2024/04/19 01:26:07;;;;;;;20.50;18.63;;;;;;;;;;5485992;26;20287;-81
2024/04/19 01:28:33;;;;;;;22.20;19.75;;;;;;;;;;5486671;26;20474;-83
2024/04/19 01:30:59;;;;;;;19.48;17.98;;;;;;;;;;5485073;26;20325;-83
2024/04/19 01:33:25;;;;;;;21.53;19.90;;;;;;;;;;5485574;26;20228;-83
2024/04/19 01:35:51;;;;;;;20.33;18.20;;;;;;;;;;5473233;26;21010;-83
2024/04/19 01:38:17;;;;;;;19.60;17.97;;;;;;;;;;5487879;26;20861;-82
2024/04/19 01:40:43;;;;;;;22.60;21.00;;;;;;;;;;5482185;26;20471;-82
2024/04/19 01:43:09;;;;;;;20.07;18.10;;;;;;;;;;5482150;26;20619;-83
2024/04/19 01:45:35;;;;;;;20.00;18.37;;;;;;;;;;5493522;26;20543;-82
2024/04/19 01:48:01;;;;;;;20.37;18.83;;;;;;;;;;5485257;26;20502;-81
2024/04/19 01:50:27;;;;;;;22.58;20.70;;;;;;;;;;5482640;26;20990;-81
2024/04/19 01:52:53;;;;;;;21.30;19.60;;;;;;;;;;5487743;26;20233;-82
2024/04/19 01:55:19;;;;;;;18.58;17.27;;;;;;;;;;5492976;26;20855;-82
2024/04/19 01:57:45;;;;;;;16.43;15.43;;;;;;;;;;5488588;26;20236;-83
2024/04/19 02:00:12;;;;;;;18.87;17.43;;;;;;;;;;5480198;26;20790;-85
2024/04/19 02:02:38;;;;;;;20.17;18.55;;;;;;;;;;5489467;26;20461;-83
2024/04/19 02:05:04;;;;;;;17.97;16.87;;;;;;;;;;5490963;26;20777;-86
2024/04/19 02:07:30;;;;;;;18.58;17.25;;;;;;;;;;5478988;26;20560;-86
2024/04/19 02:09:56;;;;;;;18.58;16.92;;;;;;;;;;5490001;26;20628;-85
2024/04/19 02:12:22;;;;;;;18.55;17.45;;;;;;;;;;5492334;26;20244;-90
2024/04/19 02:14:48;;;;;;;20.90;19.40;;;;;;;;;;5491893;26;20341;-84
2024/04/19 02:17:13;;;;;;;20.48;19.17;;;;;;;;;;5493689;26;20455;-85
2024/04/19 02:19:39;;;;;;;20.88;19.27;;;;;;;;;;5492173;26;20314;-86
2024/04/19 02:22:06;;;;;;;21.33;19.80;;;;;;;;;;5487082;26;20566;-85
2024/04/19 02:24:32;;;;;;;20.70;19.27;;;;;;;;;;5491595;26;20533;-85
2024/04/19 02:27:00;;;;;;;23.10;21.27;;;;;;;;;;5492105;26;20272;-85
2024/04/19 02:32:11;;;;;;;20.15;18.75;;;;;;;;;;5475821;26;20271;-85
2024/04/19 02:34:37;;;;;;;22.97;21.17;;;;;;;;;;5492612;26;20247;-85
2024/04/19 02:37:03;;;;;;;20.20;18.88;;;;;;;;;;5454442;26;20540;-84
2024/04/19 02:39:29;;;;;;;19.73;18.20;;;;;;;;;;5489299;26;20238;-84
2024/04/19 02:41:55;;;;;;;20.00;18.20;;;;;;;;;;5488730;26;20237;-85
2024/04/19 02:44:21;;;;;;;18.45;17.25;;;;;;;;;;5493044;26;20450;-84
2024/04/19 02:46:49;;;;;;;18.53;17.20;;;;;;;;;;5491475;26;20359;-84
2024/04/19 02:49:15;;;;;;;17.90;16.60;;;;;;;;;;5481909;26;20458;-85
2024/04/19 02:51:41;;;;;;;17.97;16.70;;;;;;;;;;5482012;26;20617;-85
2024/04/19 02:54:07;;;;;;;17.53;16.43;;;;;;;;;;5492288;26;20515;-84
2024/04/19 02:56:33;;;;;;;17.40;16.03;;;;;;;;;;5492393;26;20551;-84
2024/04/19 02:59:00;;;;;;;18.43;17.00;;;;;;;;;;5484771;26;20464;-84
2024/04/19 03:01:27;;;;;;;16.33;15.43;;;;;;;;;;5488848;26;20456;-84
2024/04/19 03:03:53;;;;;;;17.77;16.67;;;;;;;;;;5485033;26;20282;-85
2024/04/19 03:06:19;;;;;;;17.47;16.37;;;;;;;;;;5493053;26;20588;-84
2024/04/19 03:08:45;;;;;;;20.20;18.70;;;;;;;;;;5491637;26;20450;-86
2024/04/19 03:11:11;;;;;;;18.90;17.60;;;;;;;;;;5491484;26;20345;-85
2024/04/19 03:13:37;;;;;;;17.30;16.17;;;;;;;;;;5488717;26;20446;-84
2024/04/19 03:16:06;;;;;;;19.80;18.50;;;;;;;;;;5484237;26;20338;-85
2024/04/19 03:18:33;;;;;;;17.70;16.52;;;;;;;;;;5488956;26;20518;-86
2024/04/19 03:20:59;;;;;;;19.33;18.02;;;;;;;;;;5493881;26;20279;-86
2024/04/19 03:23:25;;;;;;;17.30;16.00;;;;;;;;;;5485743;26;20711;-85
2024/04/19 03:25:51;;;;;;;17.70;16.40;;;;;;;;;;5483302;26;20324;-86
2024/04/19 03:28:17;;;;;;;18.23;16.70;;;;;;;;;;5491693;26;20239;-85
2024/04/19 03:30:43;;;;;;;16.73;15.50;;;;;;;;;;5491200;26;20506;-85
2024/04/19 03:33:09;;;;;;;14.87;13.87;;;;;;;;;;5486715;26;20249;-86
2024/04/19 03:35:41;;;;;;;16.37;15.37;;;;;;;;;;5466967;26;20520;-85
2024/04/19 03:38:07;;;;;;;15.55;14.55;;;;;;;;;;5495253;26;20528;-84
2024/04/19 03:40:33;;;;;;;17.45;16.35;;;;;;;;;;5496487;26;20232;-84
2024/04/19 03:42:59;;;;;;;16.23;15.13;;;;;;;;;;5493463;26;20235;-85
2024/04/19 03:45:41;;;;;;;16.17;15.10;;;;;;;;;;5493091;26;20249;-85
2024/04/19 03:48:09;;;;;;;15.80;14.80;;;;;;;;;;5475401;26;20684;-86
2024/04/19 03:50:35;;;;;;;16.38;15.18;;;;;;;;;;5483394;26;20710;-87
2024/04/19 03:53:01;;;;;;;17.42;16.00;;;;;;;;;;5480621;26;22437;-86
2024/04/19 03:55:27;;;;;;;16.75;15.75;;;;;;;;;;5491833;26;20231;-86
2024/04/19 03:57:53;;;;;;;15.85;14.80;;;;;;;;;;5493330;26;20748;-84
2024/04/19 04:00:19;;;;;;;16.20;15.10;;;;;;;;;;5496679;26;20241;-86
2024/04/19 04:02:45;;;;;;;15.10;14.20;;;;;;;;;;5493089;26;21110;-86
2024/04/19 04:05:11;;;;;;;15.50;14.50;;;;;;;;;;5488143;26;20360;-86
2024/04/19 04:07:37;;;;;;;15.05;13.85;;;;;;;;;;5487885;26;20563;-85
2024/04/19 04:10:03;;;;;;;14.63;13.75;;;;;;;;;;5493627;26;20240;-84
2024/04/19 04:12:32;;;;;;;14.52;13.77;;;;;;;;;;5490402;26;20233;-85
2024/04/19 04:14:58;;;;;;;14.48;13.57;;;;;;;;;;5490466;26;20238;-86
2024/04/19 04:17:24;;;;;;;14.60;13.80;;;;;;;;;;5487358;26;20224;-87
2024/04/19 04:19:50;;;;;;;14.25;13.48;;;;;;;;;;5491569;26;20266;-87
2024/04/19 04:22:16;;;;;;;15.23;13.90;;;;;;;;;;5491008;26;20561;-86
2024/04/19 04:24:42;;;;;;;14.50;13.60;;;;;;;;;;5483088;26;20459;-85
2024/04/19 04:27:08;;;;;;;14.53;13.73;;;;;;;;;;5459592;26;20456;-86
2024/04/19 04:29:34;;;;;;;13.93;13.23;;;;;;;;;;5493703;26;21037;-87
2024/04/19 04:32:00;;;;;;;14.93;13.82;;;;;;;;;;5467936;26;20534;-86
2024/04/19 04:34:25;;;;;;;14.43;13.60;;;;;;;;;;5485623;26;20233;-84
2024/04/19 04:36:51;;;;;;;13.43;12.63;;;;;;;;;;5456229;26;21007;-84
2024/04/19 04:39:17;;;;;;;13.68;12.98;;;;;;;;;;5457562;26;20513;-84
2024/04/19 04:41:43;;;;;;;13.55;12.65;;;;;;;;;;5485534;26;21010;-84
2024/04/19 04:44:12;;;;;;;13.10;12.40;;;;;;;;;;5503156;26;20264;-85
2024/04/19 04:46:38;;;;;;;13.45;12.38;;;;;;;;;;5456249;26;20505;-86
2024/04/19 04:49:05;;;;;;;13.30;12.53;;;;;;;;;;5483689;26;20733;-85
2024/04/19 04:51:31;;;;;;;13.60;13.00;;;;;;;;;;5490388;26;20458;-84
2024/04/19 04:53:57;;;;;;;12.73;12.13;;;;;;;;;;5457317;26;20240;-84
2024/04/19 04:56:23;;;;;;;13.20;12.50;;;;;;;;;;5494664;26;20228;-83
2024/04/19 04:58:49;;;;;;;13.70;13.00;;;;;;;;;;5475682;26;20248;-84
2024/04/19 05:01:15;;;;;;;13.00;12.20;;;;;;;;;;5481138;26;20575;-83
2024/04/19 05:03:41;;;;;;;14.20;13.40;;;;;;;;;;5489723;26;20232;-83
2024/04/19 05:06:07;;;;;;;14.10;13.20;;;;;;;;;;5483943;26;20276;-83
2024/04/19 05:08:33;;;;;;;13.50;12.80;;;;;;;;;;5484753;26;20226;-83
2024/04/19 05:11:00;;;;;;;13.67;12.87;;;;;;;;;;5481516;26;20241;-83
2024/04/19 05:13:26;;;;;;;12.63;11.98;;;;;;;;;;5490494;26;20524;-83
2024/04/19 05:15:52;;;;;;;12.85;12.25;;;;;;;;;;5490850;26;20249;-85
2024/04/19 05:18:18;;;;;;;13.48;12.68;;;;;;;;;;5455504;26;20324;-86
2024/04/19 05:20:48;;;;;;;15.40;14.60;;;;;;;;;;5489552;26;20244;-82
2024/04/19 05:23:14;;;;;;;15.10;14.40;;;;;;;;;;5481280;26;20259;-84
2024/04/19 05:25:40;;;;;;;14.88;14.13;;;;;;;;;;5458544;26;20232;-84
2024/04/19 05:28:06;;;;;;;14.52;13.80;;;;;;;;;;5492998;26;20332;-85
2024/04/19 05:30:33;;;;;;;15.10;14.07;;;;;;;;;;5480524;26;20236;-84
2024/04/19 05:32:59;;;;;;;14.70;14.00;;;;;;;;;;5437676;26;20264;-84
2024/04/19 05:35:28;;;;;;;14.38;13.68;;;;;;;;;;5458272;26;20347;-83
2024/04/19 05:37:55;;;;;;;14.13;13.50;;;;;;;;;;5491117;26;20280;-83
2024/04/19 05:40:21;;;;;;;14.80;13.82;;;;;;;;;;5444815;26;20345;-83
2024/04/19 05:42:47;;;;;;;13.30;12.70;;;;;;;;;;5487155;26;20740;-83
2024/04/19 05:45:13;;;;;;;13.73;13.02;;;;;;;;;;5481117;26;20239;-83
2024/04/19 05:47:39;;;;;;;14.45;13.73;;;;;;;;;;5447187;26;20623;-83
2024/04/19 05:50:05;;;;;;;12.50;11.40;;;;;;;;;;5485577;26;20227;-82
2024/04/19 05:52:32;;;;;;;13.68;13.07;;;;;;;;;;5493255;26;20468;-83
2024/04/19 05:54:58;;;;;;;13.38;12.68;;;;;;;;;;5491822;26;20751;-82
2024/04/19 05:57:24;;;;;;;14.00;13.30;;;;;;;;;;5486599;26;20228;-84
2024/04/19 05:59:50;;;;;;;13.55;12.95;;;;;;;;;;5491013;26;20247;-83
2024/04/19 06:02:16;;;;;;;13.13;12.38;;;;;;;;;;5490379;26;20335;-84
2024/04/19 06:04:42;;;;;;;13.03;12.37;;;;;;;;;;5486566;26;20641;-83
2024/04/19 06:07:08;;;;;;;13.67;12.60;;;;;;;;;;5436140;26;20458;-82
2024/04/19 06:09:34;;;;;;;12.40;11.70;;;;;;;;;;5493910;26;20519;-83
2024/04/19 06:12:01;;;;;;;12.32;11.73;;;;;;;;;;5488279;26;20244;-82
2024/04/19 06:14:27;;;;;;;12.65;12.05;;;;;;;;;;5483037;26;20248;-83
2024/04/19 06:16:53;;;;;;;13.27;12.30;;;;;;;;;;5486770;26;20233;-81
2024/04/19 06:19:19;;;;;;;11.90;11.40;;;;;;;;;;5486294;26;20240;-83
2024/04/19 06:21:45;;;;;;;9.70;9.30;;;;;;;;;;5493028;26;20283;-82
2024/04/19 06:24:11;;;;;;;12.47;11.87;;;;;;;;;;5494698;26;20243;-82
2024/04/19 06:26:40;;;;;;;12.40;11.80;;;;;;;;;;5491145;26;20464;-82
2024/04/19 06:29:07;;;;;;;13.00;12.30;;;;;;;;;;5489743;26;20465;-81
2024/04/19 06:31:33;;;;;;;12.43;11.90;;;;;;;;;;5489959;26;20229;-82
2024/04/19 06:33:59;;;;;;;12.60;12.00;;;;;;;;;;5492206;26;20326;-81
2024/04/19 06:36:24;;;;;;;13.03;12.40;;;;;;;;;;5484412;26;20691;-82
2024/04/19 06:38:51;;;;;;;12.77;12.17;;;;;;;;;;5492288;26;20604;-82
2024/04/19 06:41:16;;;;;;;12.85;12.25;;;;;;;;;;5494814;26;20464;-82
2024/04/19 06:43:42;;;;;;;13.17;12.17;;;;;;;;;;5491439;26;20336;-85
2024/04/19 06:46:09;;;;;;;13.40;12.80;;;;;;;;;;5491033;26;20454;-82
2024/04/19 06:48:34;;;;;;;13.05;11.90;;;;;;;;;;5492010;26;20232;-81
2024/04/19 06:51:01;;;;;;;11.50;10.97;;;;;;;;;;5479770;26;20236;-81
2024/04/19 06:53:27;;;;;;;12.10;11.50;;;;;;;;;;5480170;26;20569;-81
2024/04/19 06:55:53;;;;;;;11.30;10.80;;;;;;;;;;5494525;26;20255;-80
2024/04/19 06:58:19;;;;;;;13.35;12.38;;;;;;;;;;5482676;26;20463;-81
2024/04/19 07:00:45;;;;;;;12.10;11.40;;;;;;;;;;5488306;26;20236;-82
2024/04/19 07:03:11;;;;;;;12.30;11.70;;;;;;;;;;5489336;26;20345;-83
2024/04/19 07:05:37;;;;;;;12.30;11.70;;;;;;;;;;5493368;26;20461;-81
2024/04/19 07:08:03;;;;;;;11.93;11.38;;;;;;;;;;5495086;26;20993;-83
2024/04/19 07:10:29;;;;;;;12.10;11.40;;;;;;;;;;5489786;26;20283;-81
2024/04/19 07:12:55;;;;;;;11.57;11.07;;;;;;;;;;5490932;26;20306;-82
2024/04/19 07:15:21;;;;;;;11.38;10.77;;;;;;;;;;5477590;26;20462;-81
2024/04/19 07:17:50;;;;;;;11.10;10.60;;;;;;;;;;5492239;26;20291;-82
2024/04/19 07:20:16;;;;;;;11.38;10.85;;;;;;;;;;5492004;26;20465;-81
2024/04/19 07:22:42;;;;;;;11.50;10.90;;;;;;;;;;5491408;26;20719;-82
2024/04/19 07:25:08;;;;;;;11.43;10.90;;;;;;;;;;5486920;26;20562;-81
2024/04/19 07:27:34;;;;;;;12.37;11.67;;;;;;;;;;5480218;26;20507;-81
2024/04/19 07:30:00;;;;;;;10.80;10.20;;;;;;;;;;5479366;26;20477;-83
2024/04/19 07:32:26;;;;;;;10.90;10.30;;;;;;;;;;5488299;26;20544;-82
2024/04/19 07:34:52;;;;;;;10.90;10.40;;;;;;;;;;5492964;26;20237;-81
2024/04/19 07:37:18;;;;;;;10.57;10.07;;;;;;;;;;5477089;26;20525;-81
2024/04/19 07:39:44;;;;;;;11.10;10.40;;;;;;;;;;5484118;26;20562;-82
2024/04/19 07:42:10;;;;;;;12.20;11.40;;;;;;;;;;5484135;26;20248;-82
2024/04/19 07:44:36;;;;;;;11.38;10.77;;;;;;;;;;5489068;26;20758;-80
2024/04/19 07:47:02;;;;;;;12.07;11.48;;;;;;;;;;5485907;26;20744;-81
2024/04/19 07:49:28;;;;;;;12.03;11.43;;;;;;;;;;5471919;26;20289;-81
2024/04/19 07:51:54;;;;;;;12.02;11.32;;;;;;;;;;5460824;26;21027;-82
2024/04/19 07:54:20;;;;;;;12.20;11.35;;;;;;;;;;5487421;26;20221;-82
2024/04/19 07:56:47;;;;;;;11.23;10.73;;;;;;;;;;5491988;26;20251;-82
2024/04/19 07:59:13;;;;;;;13.00;11.85;;;;;;;;;;5488616;26;20678;-81
2024/04/19 08:01:39;;;;;;;12.13;11.38;;;;;;;;;;5488191;26;20266;-83
2024/04/19 08:04:05;;;;;;;12.33;11.70;;;;;;;;;;5458176;26;20285;-81
2024/04/19 08:06:31;;;;;;;13.02;12.13;;;;;;;;;;5460200;26;20570;-80
2024/04/19 08:08:58;;;;;;;11.98;11.07;;;;;;;;;;5481909;26;20228;-81
2024/04/19 08:11:23;;;;;;;13.45;11.75;;;;;;;;;;5455980;26;20244;-82
2024/04/19 08:13:50;;;;;;;11.67;11.07;;;;;;;;;;5492423;26;20341;-82
2024/04/19 08:16:16;;;;;;;12.30;11.32;;;;;;;;;;5473700;26;20573;-83
2024/04/19 08:18:42;;;;;;;11.93;11.20;;;;;;;;;;5504576;26;20252;-82
2024/04/19 08:21:08;;;;;;;13.00;12.30;;;;;;;;;;5420617;26;20241;-82
2024/04/19 08:23:34;;;;;;;14.40;13.50;;;;;;;;;;5491152;26;20464;-83
2024/04/19 08:26:00;;;;;;;13.00;12.30;;;;;;;;;;5490997;26;20333;-82
2024/04/19 08:28:26;;;;;;;12.10;11.47;;;;;;;;;;5490361;26;20603;-81
2024/04/19 08:30:55;;;;;;;13.50;12.70;;;;;;;;;;5478639;26;20518;-82
2024/04/19 08:33:21;;;;;;;14.73;13.55;;;;;;;;;;5488114;26;20284;-82
2024/04/19 08:35:55;;;;;;;13.75;12.75;;;;;;;;;;5492163;26;20280;-83
2024/04/19 08:38:21;;;;;;;13.63;12.82;;;;;;;;;;5496597;26;20271;-83
2024/04/19 08:40:54;;;;;;;14.93;13.83;;;;;;;;;;5490079;26;20233;-83
2024/04/19 08:43:20;;;;;;;14.57;13.68;;;;;;;;;;5488275;26;20513;-83
2024/04/19 08:45:46;;;;;;;14.30;13.40;;;;;;;;;;5492066;26;20229;-80
2024/04/19 08:48:12;;;;;;;15.57;14.48;;;;;;;;;;5477223;26;20734;-82
2024/04/19 08:50:39;;;;;;;14.48;13.57;;;;;;;;;;5488781;26;20236;-82
2024/04/19 08:53:09;;;;;;;15.30;14.20;;;;;;;;;;5488626;26;20286;-81
2024/04/19 08:55:36;;;;;;;13.73;12.85;;;;;;;;;;5495853;26;20229;-81
2024/04/19 08:58:03;;;;;;;13.15;12.15;;;;;;;;;;5490911;26;20232;-82
2024/04/19 09:00:29;;;;;;;13.23;12.32;;;;;;;;;;5500529;26;20232;-82
2024/04/19 09:02:55;;;;;;;13.77;12.93;;;;;;;;;;5492271;26;20274;-83
2024/04/19 09:05:21;;;;;;;15.27;13.70;;;;;;;;;;5495774;26;20522;-83
2024/04/19 09:07:47;;;;;;;14.35;13.45;;;;;;;;;;5450124;26;20603;-82
2024/04/19 09:10:13;;;;;;;15.47;14.43;;;;;;;;;;5480436;26;20245;-82
2024/04/19 09:12:39;;;;;;;12.30;11.60;;;;;;;;;;5488731;26;20461;-83
2024/04/19 09:15:05;;;;;;;13.10;12.00;;;;;;;;;;5482673;26;20849;-80
2024/04/19 09:17:31;;;;;;;15.07;14.00;;;;;;;;;;5489663;26;20279;-82
2024/04/19 09:19:58;;;;;;;13.30;12.30;;;;;;;;;;5496667;26;20239;-81
2024/04/19 09:22:24;;;;;;;14.88;13.80;;;;;;;;;;5490465;26;20229;-82
2024/04/19 09:24:53;;;;;;;14.75;13.70;;;;;;;;;;5438153;26;20293;-82
2024/04/19 09:27:19;;;;;;;14.25;13.25;;;;;;;;;;5459400;26;20283;-82
2024/04/19 09:29:45;;;;;;;11.67;10.97;;;;;;;;;;5496379;26;20236;-82
2024/04/19 09:32:11;;;;;;;13.13;12.20;;;;;;;;;;5484926;26;20469;-80
2024/04/19 09:34:37;;;;;;;12.70;12.00;;;;;;;;;;5479223;26;20350;-82
2024/04/19 09:37:03;;;;;;;12.90;12.00;;;;;;;;;;5484390;26;20526;-83
2024/04/19 09:39:30;;;;;;;11.48;10.77;;;;;;;;;;5488551;26;20454;-83
2024/04/19 09:41:58;;;;;;;11.32;10.52;;;;;;;;;;5494124;26;20283;-81
2024/04/19 09:44:27;;;;;;;12.45;11.65;;;;;;;;;;5492861;26;20250;-81
2024/04/19 09:46:56;;;;;;;11.90;11.20;;;;;;;;;;5490346;26;20233;-82
2024/04/19 09:49:26;;;;;;;12.13;11.43;;;;;;;;;;5492913;26;20270;-80
2024/04/19 09:51:52;;;;;;;12.43;11.73;;;;;;;;;;5493789;26;20619;-81
2024/04/19 09:54:24;;;;;;;12.40;11.60;;;;;;;;;;5490600;26;20762;-82
2024/04/19 09:56:53;;;;;;;12.25;11.35;;;;;;;;;;5493642;26;20240;-81
2024/04/19 09:59:19;;;;;;;11.73;10.82;;;;;;;;;;5493720;26;20288;-81
2024/04/19 10:01:45;;;;;;;13.95;13.05;;;;;;;;;;5492561;26;20228;-81
2024/04/19 10:04:13;;;;;;;14.90;13.87;;;;;;;;;;5482636;26;20275;-80
2024/04/19 10:06:40;;;;;;;13.45;12.52;;;;;;;;;;5483667;26;20457;-80
2024/04/19 10:09:09;;;;;;;13.52;12.52;;;;;;;;;;5485168;26;20565;-80
2024/04/19 10:11:38;;;;;;;12.45;11.55;;;;;;;;;;5493824;26;20766;-81
2024/04/19 10:14:05;;;;;;;12.70;11.80;;;;;;;;;;5491249;26;20283;-82
2024/04/19 10:16:31;;;;;;;12.13;11.13;;;;;;;;;;5480815;26;20340;-81
2024/04/19 10:18:57;;;;;;;9.73;8.90;;;;;;;;;;5488071;26;20229;-83
2024/04/19 10:21:27;;;;;;;11.18;10.38;;;;;;;;;;5488194;26;20241;-80
2024/04/19 10:23:53;;;;;;;11.85;11.05;;;;;;;;;;5485614;26;20304;-83
2024/04/19 10:26:23;;;;;;;11.95;11.10;;;;;;;;;;5466215;26;20283;-80
2024/04/19 10:28:55;;;;;;;11.10;10.48;;;;;;;;;;5420431;26;20313;-83
2024/04/19 10:31:24;;;;;;;11.10;10.07;;;;;;;;;;5492508;26;20232;-81
2024/04/19 10:33:50;;;;;;;10.55;9.57;;;;;;;;;;5491464;26;20252;-82
2024/04/19 10:36:16;;;;;;;10.82;10.20;;;;;;;;;;5490956;26;20697;-82
2024/04/19 10:38:42;;;;;;;10.90;10.20;;;;;;;;;;5477798;26;20365;-83
2024/04/19 10:41:17;;;;;;;11.77;10.63;;;;;;;;;;5488354;26;20521;-82
2024/04/19 10:43:43;;;;;;;12.65;11.45;;;;;;;;;;5487584;26;20457;-82
2024/04/19 10:46:16;;;;;;;11.13;10.37;;;;;;;;;;5492712;26;20271;-82
2024/04/19 10:48:42;;;;;;;10.27;9.40;;;;;;;;;;5493578;26;20598;-84
2024/04/19 10:51:13;;;;;;;9.82;9.23;;;;;;;;;;5470698;26;20236;-82
2024/04/19 10:53:42;;;;;;;9.90;9.30;;;;;;;;;;5483612;26;20803;-83
2024/04/19 10:56:08;;;;;;;7.10;6.70;;;;;;;;;;5479673;26;20352;-81
2024/04/19 10:58:35;;;;;;;8.85;8.35;;;;;;;;;;5488785;26;20224;-82
2024/04/19 11:01:01;;;;;;;9.38;8.65;;;;;;;;;;5492382;26;20298;-82
2024/04/19 11:03:27;;;;;;;8.75;8.30;;;;;;;;;;5474953;26;20296;-82
2024/04/19 11:05:54;;;;;;;9.13;8.55;;;;;;;;;;5491406;26;20232;-82
2024/04/19 11:08:20;;;;;;;8.73;8.32;;;;;;;;;;5488603;26;20232;-81
2024/04/19 11:10:47;;;;;;;9.10;8.70;;;;;;;;;;5491116;26;20350;-81
2024/04/19 11:13:13;;;;;;;8.98;8.27;;;;;;;;;;5487792;26;20585;-81
2024/04/19 11:15:39;;;;;;;8.93;8.48;;;;;;;;;;5483187;26;20248;-81
2024/04/19 11:18:07;;;;;;;8.55;8.00;;;;;;;;;;5487934;26;20232;-82
2024/04/19 11:20:34;;;;;;;8.50;8.10;;;;;;;;;;5491715;26;20229;-83
2024/04/19 11:23:02;;;;;;;8.68;7.85;;;;;;;;;;5492575;26;20224;-82
2024/04/19 11:25:34;;;;;;;9.55;8.75;;;;;;;;;;5488271;26;20464;-84
2024/04/19 11:28:00;;;;;;;8.00;7.50;;;;;;;;;;5490978;26;20240;-82
2024/04/19 11:30:26;;;;;;;8.33;7.67;;;;;;;;;;5490955;26;20233;-83
2024/04/19 11:32:52;;;;;;;8.13;7.55;;;;;;;;;;5485799;26;20526;-82
2024/04/19 11:35:18;;;;;;;8.90;7.88;;;;;;;;;;5493413;26;20292;-83
2024/04/19 11:37:50;;;;;;;8.27;7.60;;;;;;;;;;5481538;26;20853;-82
2024/04/19 11:40:20;;;;;;;8.55;7.90;;;;;;;;;;5451285;26;20274;-83
2024/04/19 11:42:47;;;;;;;8.40;7.80;;;;;;;;;;5488293;26;20271;-83
2024/04/19 11:45:13;;;;;;;9.27;8.00;;;;;;;;;;5476843;26;20544;-85
2024/04/19 11:47:39;;;;;;;8.05;7.65;;;;;;;;;;5450848;26;20225;-83
2024/04/19 11:50:05;;;;;;;8.23;7.70;;;;;;;;;;5492211;26;20252;-84
2024/04/19 11:52:31;;;;;;;9.48;8.90;;;;;;;;;;5494300;26;20237;-82
2024/04/19 11:54:57;;;;;;;12.10;11.40;;;;;;;;;;5492619;26;20232;-81
2024/04/19 11:57:23;;;;;;;10.90;10.50;;;;;;;;;;5492745;26;20471;-80
2024/04/19 11:59:49;;;;;;;16.30;15.30;;;;;;;;;;5491305;26;20978;-86
2024/04/19 12:02:15;;;;;;;15.40;14.60;;;;;;;;;;5491251;26;20563;-81
2024/04/19 12:04:42;;;;;;;15.90;15.10;;;;;;;;;;5500801;26;20510;-80
2024/04/19 12:07:08;;;;;;;13.90;13.30;;;;;;;;;;5468535;26;20473;-81
2024/04/19 12:09:34;;;;;;;14.40;13.30;;;;;;;;;;5492630;26;20216;-80
2024/04/19 12:12:03;;;;;;;15.38;14.13;;;;;;;;;;5492873;26;20252;-81
2024/04/19 12:14:34;;;;;;;13.90;13.10;;;;;;;;;;5492126;26;20258;-81
2024/04/19 12:17:00;;;;;;;14.50;13.80;;;;;;;;;;5492674;26;20292;-81
2024/04/19 12:19:26;;;;;;;16.40;15.60;;;;;;;;;;5484101;26;20233;-80
2024/04/19 12:21:52;;;;;;;15.37;14.43;;;;;;;;;;5486786;26;20272;-82
2024/04/19 12:24:18;;;;;;;14.30;13.67;;;;;;;;;;5491870;26;20462;-81
2024/04/19 12:26:44;;;;;;;14.20;13.20;;;;;;;;;;5485728;26;20518;-82
2024/04/19 12:29:10;;;;;;;13.80;13.00;;;;;;;;;;5477391;26;20518;-82
2024/04/19 12:31:36;;;;;;;14.00;13.30;;;;;;;;;;5488597;26;20565;-82
2024/04/19 12:34:02;;;;;;;14.40;13.35;;;;;;;;;;5487453;26;20989;-82
2024/04/19 12:36:28;;;;;;;13.73;12.97;;;;;;;;;;5482426;26;20241;-83
2024/04/19 12:38:54;;;;;;;15.20;14.40;;;;;;;;;;5477120;26;20467;-82
2024/04/19 12:41:20;;;;;;;13.93;13.10;;;;;;;;;;5485310;26;20473;-82
2024/04/19 12:43:47;;;;;;;13.70;12.70;;;;;;;;;;5489792;26;20461;-84
2024/04/19 12:46:13;;;;;;;13.35;12.65;;;;;;;;;;5479760;26;20532;-83
2024/04/19 12:48:41;;;;;;;13.10;12.50;;;;;;;;;;5480986;26;20348;-81
2024/04/19 12:51:07;;;;;;;13.68;12.98;;;;;;;;;;5465882;26;20880;-82
2024/04/19 12:53:33;;;;;;;12.40;11.70;;;;;;;;;;5477844;26;20283;-82
2024/04/19 12:55:59;;;;;;;12.18;11.38;;;;;;;;;;5490528;26;20240;-82
2024/04/19 12:58:25;;;;;;;11.95;11.10;;;;;;;;;;5481019;26;20230;-82
2024/04/19 13:00:51;;;;;;;11.77;10.80;;;;;;;;;;5439613;26;20244;-81
2024/04/19 13:03:17;;;;;;;10.88;10.32;;;;;;;;;;5491556;26;20241;-81
2024/04/19 13:05:44;;;;;;;10.57;9.75;;;;;;;;;;5485758;26;20235;-80
2024/04/19 13:08:10;;;;;;;10.57;9.98;;;;;;;;;;5449941;26;20284;-81
2024/04/19 13:10:38;;;;;;;10.57;9.87;;;;;;;;;;5487723;26;20716;-82
2024/04/19 13:13:05;;;;;;;10.25;9.68;;;;;;;;;;5470068;26;20805;-81
2024/04/19 13:15:31;;;;;;;9.93;9.32;;;;;;;;;;5493853;26;20233;-81
2024/04/19 13:17:57;;;;;;;10.73;9.70;;;;;;;;;;5494141;26;20335;-81
2024/04/19 13:20:24;;;;;;;10.63;9.82;;;;;;;;;;5478150;26;20324;-82
2024/04/19 13:22:50;;;;;;;10.27;9.60;;;;;;;;;;5425637;26;20323;-81
2024/04/19 13:25:16;;;;;;;11.40;10.70;;;;;;;;;;5489196;26;20232;-82
2024/04/19 13:27:42;;;;;;;9.90;9.35;;;;;;;;;;5494085;26;20905;-81
2024/04/19 13:30:09;;;;;;;11.60;10.90;;;;;;;;;;5494066;26;20247;-80
2024/04/19 13:32:35;;;;;;;11.60;11.00;;;;;;;;;;5489923;26;20292;-81
2024/04/19 13:35:01;;;;;;;12.00;11.30;;;;;;;;;;5491486;26;20824;-82
2024/04/19 13:37:27;;;;;;;12.40;11.45;;;;;;;;;;5486538;26;20526;-85
2024/04/19 13:39:53;;;;;;;11.23;10.52;;;;;;;;;;5454772;26;20341;-85
2024/04/19 13:42:19;;;;;;;10.33;9.47;;;;;;;;;;5493949;26;20626;-81
2024/04/19 13:44:45;;;;;;;10.90;10.40;;;;;;;;;;5454783;26;21057;-83
2024/04/19 13:47:12;;;;;;;13.23;12.73;;;;;;;;;;5494619;26;20240;-82
2024/04/19 13:49:39;;;;;;;13.20;12.60;;;;;;;;;;5493517;26;20239;-80
2024/04/19 13:52:05;;;;;;;12.60;12.00;;;;;;;;;;5495370;26;20241;-84
2024/04/19 13:54:31;;;;;;;12.82;12.27;;;;;;;;;;5488696;26;20629;-82
2024/04/19 13:56:57;;;;;;;12.00;11.20;;;;;;;;;;5494662;26;20597;-81
2024/04/19 13:59:23;;;;;;;12.32;11.82;;;;;;;;;;5494244;26;20272;-82
2024/04/19 14:01:49;;;;;;;10.70;10.20;;;;;;;;;;5493409;26;20233;-80
2024/04/19 14:04:16;;;;;;;11.57;10.90;;;;;;;;;;5493574;26;20269;-80
2024/04/19 14:06:42;;;;;;;11.27;10.55;;;;;;;;;;5490086;26;20536;-81
2024/04/19 14:09:08;;;;;;;12.67;11.30;;;;;;;;;;5493561;26;20267;-81
2024/04/19 14:11:34;;;;;;;11.80;11.10;;;;;;;;;;5487109;26;20597;-81
2024/04/19 14:14:00;;;;;;;11.60;11.10;;;;;;;;;;5483204;26;20234;-82
2024/04/19 14:16:26;;;;;;;12.05;11.25;;;;;;;;;;5487798;26;20241;-82
2024/04/19 14:18:53;;;;;;;10.40;10.00;;;;;;;;;;5492869;26;20295;-80